sensor_id;sensor_type;location;lat;lon;timestamp;P1;durP1;ratioP1;P2;durP2;ratioP2
64615;SDS011;51027;42.162;24.754;2023-06-24T03:32:49;21.50;;;10.90;;
64615;SDS011;51027;42.162;24.754;2023-06-24T03:35:15;20.48;;;11.27;;
64615;SDS011;51027;42.162;24.754;2023-06-24T03:37:40;19.50;;;10.18;;
64615;SDS011;51027;42.162;24.754;2023-06-24T03:40:06;24.02;;;11.60;;
64615;SDS011;51027;42.162;24.754;2023-06-24T03:42:33;22.60;;;11.07;;
64615;SDS011;51027;42.162;24.754;2023-06-24T03:44:58;19.75;;;9.77;;
64615;SDS011;51027;42.162;24.754;2023-06-24T03:47:24;22.15;;;12.02;;
64615;SDS011;51027;42.162;24.754;2023-06-24T03:49:49;22.88;;;12.07;;
64615;SDS011;51027;42.162;24.754;2023-06-24T03:52:16;24.55;;;10.15;;
64615;SDS011;51027;42.162;24.754;2023-06-24T03:54:42;21.42;;;10.27;;
64615;SDS011;51027;42.162;24.754;2023-06-24T03:57:09;20.48;;;9.45;;
64615;SDS011;51027;42.162;24.754;2023-06-24T03:59:35;20.27;;;9.73;;
64615;SDS011;51027;42.162;24.754;2023-06-24T04:02:00;18.30;;;8.93;;
64615;SDS011;51027;42.162;24.754;2023-06-24T04:04:26;21.63;;;9.95;;
64615;SDS011;51027;42.162;24.754;2023-06-24T04:06:51;19.63;;;9.30;;
64615;SDS011;51027;42.162;24.754;2023-06-24T04:09:16;18.63;;;9.05;;
64615;SDS011;51027;42.162;24.754;2023-06-24T04:11:42;19.15;;;8.90;;
64615;SDS011;51027;42.162;24.754;2023-06-24T04:14:07;21.73;;;9.65;;
64615;SDS011;51027;42.162;24.754;2023-06-24T04:16:34;18.35;;;9.23;;
64615;SDS011;51027;42.162;24.754;2023-06-24T04:19:00;20.35;;;9.88;;
64615;SDS011;51027;42.162;24.754;2023-06-24T04:21:26;17.63;;;8.80;;
64615;SDS011;51027;42.162;24.754;2023-06-24T04:23:51;19.20;;;9.35;;
64615;SDS011;51027;42.162;24.754;2023-06-24T04:26:17;21.98;;;9.77;;
64615;SDS011;51027;42.162;24.754;2023-06-24T04:28:42;20.10;;;9.23;;
64615;SDS011;51027;42.162;24.754;2023-06-24T04:31:08;19.15;;;9.00;;
64615;SDS011;51027;42.162;24.754;2023-06-24T04:33:33;20.35;;;9.68;;
64615;SDS011;51027;42.162;24.754;2023-06-24T04:35:59;19.77;;;9.20;;
64615;SDS011;51027;42.162;24.754;2023-06-24T04:38:25;17.85;;;9.00;;
64615;SDS011;51027;42.162;24.754;2023-06-24T04:40:50;20.77;;;9.32;;
64615;SDS011;51027;42.162;24.754;2023-06-24T04:43:16;20.13;;;9.48;;
64615;SDS011;51027;42.162;24.754;2023-06-24T04:45:42;18.85;;;9.60;;
64615;SDS011;51027;42.162;24.754;2023-06-24T04:48:07;22.75;;;11.13;;
64615;SDS011;51027;42.162;24.754;2023-06-24T04:50:32;22.08;;;9.70;;
64615;SDS011;51027;42.162;24.754;2023-06-24T04:52:58;20.48;;;9.30;;
64615;SDS011;51027;42.162;24.754;2023-06-24T04:55:23;19.95;;;9.73;;
64615;SDS011;51027;42.162;24.754;2023-06-24T04:57:49;18.73;;;8.98;;
64615;SDS011;51027;42.162;24.754;2023-06-24T05:00:15;20.33;;;10.00;;
64615;SDS011;51027;42.162;24.754;2023-06-24T05:02:40;21.98;;;9.70;;
64615;SDS011;51027;42.162;24.754;2023-06-24T05:05:06;20.02;;;10.13;;
64615;SDS011;51027;42.162;24.754;2023-06-24T05:07:32;20.55;;;9.52;;
64615;SDS011;51027;42.162;24.754;2023-06-24T05:09:57;19.67;;;9.35;;
64615;SDS011;51027;42.162;24.754;2023-06-24T05:12:23;20.55;;;9.65;;
64615;SDS011;51027;42.162;24.754;2023-06-24T05:14:51;18.85;;;9.82;;
64615;SDS011;51027;42.162;24.754;2023-06-24T05:17:17;17.42;;;8.55;;
64615;SDS011;51027;42.162;24.754;2023-06-24T05:19:43;17.73;;;8.95;;
64615;SDS011;51027;42.162;24.754;2023-06-24T05:22:09;20.75;;;8.85;;
64615;SDS011;51027;42.162;24.754;2023-06-24T05:24:34;19.50;;;9.00;;
64615;SDS011;51027;42.162;24.754;2023-06-24T05:27:03;19.25;;;9.77;;
64615;SDS011;51027;42.162;24.754;2023-06-24T05:29:33;21.45;;;8.90;;
64615;SDS011;51027;42.162;24.754;2023-06-24T05:31:59;20.08;;;9.13;;
64615;SDS011;51027;42.162;24.754;2023-06-24T05:34:27;19.08;;;8.60;;
64615;SDS011;51027;42.162;24.754;2023-06-24T05:36:52;18.33;;;8.45;;
64615;SDS011;51027;42.162;24.754;2023-06-24T05:39:18;18.25;;;8.10;;
64615;SDS011;51027;42.162;24.754;2023-06-24T05:41:44;17.25;;;8.45;;
64615;SDS011;51027;42.162;24.754;2023-06-24T05:44:10;19.63;;;8.80;;
64615;SDS011;51027;42.162;24.754;2023-06-24T05:46:36;17.67;;;8.90;;
64615;SDS011;51027;42.162;24.754;2023-06-24T05:49:01;18.13;;;9.00;;
64615;SDS011;51027;42.162;24.754;2023-06-24T05:51:28;19.13;;;8.50;;
64615;SDS011;51027;42.162;24.754;2023-06-24T05:53:53;19.38;;;8.93;;
64615;SDS011;51027;42.162;24.754;2023-06-24T05:56:19;19.23;;;8.75;;
64615;SDS011;51027;42.162;24.754;2023-06-24T05:58:46;19.77;;;8.73;;
64615;SDS011;51027;42.162;24.754;2023-06-24T06:01:11;19.48;;;9.65;;
64615;SDS011;51027;42.162;24.754;2023-06-24T06:03:37;22.50;;;11.63;;
64615;SDS011;51027;42.162;24.754;2023-06-24T06:06:02;18.83;;;9.00;;
64615;SDS011;51027;42.162;24.754;2023-06-24T06:08:28;19.55;;;9.02;;
64615;SDS011;51027;42.162;24.754;2023-06-24T06:10:53;19.45;;;9.38;;
64615;SDS011;51027;42.162;24.754;2023-06-24T06:13:19;19.38;;;9.30;;
64615;SDS011;51027;42.162;24.754;2023-06-24T06:15:44;18.85;;;9.20;;
64615;SDS011;51027;42.162;24.754;2023-06-24T06:18:10;17.90;;;9.10;;
64615;SDS011;51027;42.162;24.754;2023-06-24T06:20:35;20.13;;;9.77;;
64615;SDS011;51027;42.162;24.754;2023-06-24T06:23:01;21.95;;;9.48;;
64615;SDS011;51027;42.162;24.754;2023-06-24T06:25:26;20.52;;;10.30;;
64615;SDS011;51027;42.162;24.754;2023-06-24T06:27:51;19.52;;;9.60;;
64615;SDS011;51027;42.162;24.754;2023-06-24T06:30:17;19.15;;;10.02;;
64615;SDS011;51027;42.162;24.754;2023-06-24T06:32:42;19.95;;;10.13;;
64615;SDS011;51027;42.162;24.754;2023-06-24T06:35:08;20.40;;;9.20;;
64615;SDS011;51027;42.162;24.754;2023-06-24T06:37:33;19.38;;;9.20;;
64615;SDS011;51027;42.162;24.754;2023-06-24T06:39:59;19.27;;;9.52;;
64615;SDS011;51027;42.162;24.754;2023-06-24T06:42:24;19.27;;;9.30;;
64615;SDS011;51027;42.162;24.754;2023-06-24T06:44:50;19.88;;;9.85;;
64615;SDS011;51027;42.162;24.754;2023-06-24T06:47:15;21.10;;;9.48;;
64615;SDS011;51027;42.162;24.754;2023-06-24T06:49:41;20.85;;;9.70;;
64615;SDS011;51027;42.162;24.754;2023-06-24T06:52:06;20.85;;;9.80;;
64615;SDS011;51027;42.162;24.754;2023-06-24T06:54:32;20.27;;;10.30;;
64615;SDS011;51027;42.162;24.754;2023-06-24T06:57:03;17.90;;;8.93;;
64615;SDS011;51027;42.162;24.754;2023-06-24T06:59:32;19.67;;;9.95;;
64615;SDS011;51027;42.162;24.754;2023-06-24T07:01:58;19.00;;;10.18;;
64615;SDS011;51027;42.162;24.754;2023-06-24T07:04:24;19.73;;;9.85;;
64615;SDS011;51027;42.162;24.754;2023-06-24T07:06:50;17.27;;;9.50;;
64615;SDS011;51027;42.162;24.754;2023-06-24T07:09:15;18.58;;;9.98;;
64615;SDS011;51027;42.162;24.754;2023-06-24T07:11:42;21.98;;;12.18;;
64615;SDS011;51027;42.162;24.754;2023-06-24T07:14:07;20.25;;;9.88;;
64615;SDS011;51027;42.162;24.754;2023-06-24T07:16:33;18.45;;;9.80;;
64615;SDS011;51027;42.162;24.754;2023-06-24T07:18:58;19.45;;;10.45;;
64615;SDS011;51027;42.162;24.754;2023-06-24T07:21:24;19.20;;;10.80;;
64615;SDS011;51027;42.162;24.754;2023-06-24T07:23:49;21.70;;;11.50;;
64615;SDS011;51027;42.162;24.754;2023-06-24T07:26:15;21.00;;;10.35;;
64615;SDS011;51027;42.162;24.754;2023-06-24T07:28:40;18.10;;;10.07;;
64615;SDS011;51027;42.162;24.754;2023-06-24T07:31:06;21.17;;;10.52;;
64615;SDS011;51027;42.162;24.754;2023-06-24T07:33:33;19.33;;;9.48;;
64615;SDS011;51027;42.162;24.754;2023-06-24T07:36:02;22.58;;;9.73;;
64615;SDS011;51027;42.162;24.754;2023-06-24T07:38:28;19.38;;;9.43;;
64615;SDS011;51027;42.162;24.754;2023-06-24T07:40:56;19.55;;;10.02;;
64615;SDS011;51027;42.162;24.754;2023-06-24T07:43:21;25.27;;;13.00;;
64615;SDS011;51027;42.162;24.754;2023-06-24T07:45:47;28.10;;;13.90;;
64615;SDS011;51027;42.162;24.754;2023-06-24T07:48:12;21.13;;;11.43;;
64615;SDS011;51027;42.162;24.754;2023-06-24T07:50:38;30.27;;;14.68;;
64615;SDS011;51027;42.162;24.754;2023-06-24T07:53:05;18.50;;;9.65;;
64615;SDS011;51027;42.162;24.754;2023-06-24T07:55:34;19.30;;;9.80;;
64615;SDS011;51027;42.162;24.754;2023-06-24T07:57:59;18.73;;;9.82;;
64615;SDS011;51027;42.162;24.754;2023-06-24T08:00:25;18.13;;;9.73;;
64615;SDS011;51027;42.162;24.754;2023-06-24T08:02:50;17.67;;;9.43;;
64615;SDS011;51027;42.162;24.754;2023-06-24T08:05:16;19.27;;;10.27;;
64615;SDS011;51027;42.162;24.754;2023-06-24T08:07:43;19.05;;;9.10;;
64615;SDS011;51027;42.162;24.754;2023-06-24T08:10:09;18.13;;;9.68;;
64615;SDS011;51027;42.162;24.754;2023-06-24T08:12:34;20.42;;;9.10;;
64615;SDS011;51027;42.162;24.754;2023-06-24T08:15:00;18.75;;;9.80;;
64615;SDS011;51027;42.162;24.754;2023-06-24T08:17:25;21.05;;;9.85;;
64615;SDS011;51027;42.162;24.754;2023-06-24T08:19:50;19.05;;;10.13;;
64615;SDS011;51027;42.162;24.754;2023-06-24T08:22:16;18.67;;;8.80;;
64615;SDS011;51027;42.162;24.754;2023-06-24T08:24:41;19.85;;;9.10;;
64615;SDS011;51027;42.162;24.754;2023-06-24T08:27:07;21.40;;;9.35;;
64615;SDS011;51027;42.162;24.754;2023-06-24T08:29:33;17.95;;;9.68;;
64615;SDS011;51027;42.162;24.754;2023-06-24T08:31:59;19.40;;;9.68;;
64615;SDS011;51027;42.162;24.754;2023-06-24T08:34:24;17.58;;;9.40;;
64615;SDS011;51027;42.162;24.754;2023-06-24T08:36:50;18.88;;;9.60;;
64615;SDS011;51027;42.162;24.754;2023-06-24T08:39:15;19.13;;;10.20;;
64615;SDS011;51027;42.162;24.754;2023-06-24T08:41:40;17.85;;;9.90;;
64615;SDS011;51027;42.162;24.754;2023-06-24T08:44:06;18.42;;;9.65;;
64615;SDS011;51027;42.162;24.754;2023-06-24T08:46:31;20.95;;;10.75;;
64615;SDS011;51027;42.162;24.754;2023-06-24T08:49:07;17.60;;;9.73;;
64615;SDS011;51027;42.162;24.754;2023-06-24T08:51:45;17.15;;;9.15;;
64615;SDS011;51027;42.162;24.754;2023-06-24T08:54:14;16.77;;;9.13;;
64615;SDS011;51027;42.162;24.754;2023-06-24T08:56:40;20.00;;;9.90;;
64615;SDS011;51027;42.162;24.754;2023-06-24T08:59:06;25.02;;;9.63;;
64615;SDS011;51027;42.162;24.754;2023-06-24T09:01:33;17.58;;;9.15;;
64615;SDS011;51027;42.162;24.754;2023-06-24T09:03:59;19.33;;;9.10;;
64615;SDS011;51027;42.162;24.754;2023-06-24T09:06:25;17.70;;;9.05;;
64615;SDS011;51027;42.162;24.754;2023-06-24T09:08:54;18.50;;;9.93;;
64615;SDS011;51027;42.162;24.754;2023-06-24T09:11:24;17.80;;;9.27;;
64615;SDS011;51027;42.162;24.754;2023-06-24T09:13:56;18.10;;;9.35;;
64615;SDS011;51027;42.162;24.754;2023-06-24T09:16:22;20.15;;;9.40;;
64615;SDS011;51027;42.162;24.754;2023-06-24T09:18:50;19.42;;;9.43;;
64615;SDS011;51027;42.162;24.754;2023-06-24T09:21:26;17.42;;;8.75;;
64615;SDS011;51027;42.162;24.754;2023-06-24T09:23:56;17.15;;;9.45;;
64615;SDS011;51027;42.162;24.754;2023-06-24T09:26:22;18.35;;;9.20;;
64615;SDS011;51027;42.162;24.754;2023-06-24T09:28:52;19.05;;;9.82;;
64615;SDS011;51027;42.162;24.754;2023-06-24T09:31:18;17.40;;;9.02;;
64615;SDS011;51027;42.162;24.754;2023-06-24T09:33:44;17.10;;;8.55;;
64615;SDS011;51027;42.162;24.754;2023-06-24T09:36:14;16.60;;;8.80;;
64615;SDS011;51027;42.162;24.754;2023-06-24T09:38:41;16.90;;;8.82;;
64615;SDS011;51027;42.162;24.754;2023-06-24T09:41:08;18.65;;;9.50;;
64615;SDS011;51027;42.162;24.754;2023-06-24T09:43:34;19.88;;;9.48;;
64615;SDS011;51027;42.162;24.754;2023-06-24T09:46:05;17.98;;;9.38;;
64615;SDS011;51027;42.162;24.754;2023-06-24T09:48:31;19.17;;;10.27;;
64615;SDS011;51027;42.162;24.754;2023-06-24T09:50:59;16.90;;;9.20;;
64615;SDS011;51027;42.162;24.754;2023-06-24T09:53:35;17.63;;;9.57;;
64615;SDS011;51027;42.162;24.754;2023-06-24T09:56:03;18.48;;;9.45;;
64615;SDS011;51027;42.162;24.754;2023-06-24T09:58:36;17.52;;;8.90;;
64615;SDS011;51027;42.162;24.754;2023-06-24T10:01:04;17.25;;;9.45;;
64615;SDS011;51027;42.162;24.754;2023-06-24T10:03:32;16.80;;;9.00;;
64615;SDS011;51027;42.162;24.754;2023-06-24T10:05:59;18.13;;;8.77;;
64615;SDS011;51027;42.162;24.754;2023-06-24T10:08:27;17.80;;;8.90;;
64615;SDS011;51027;42.162;24.754;2023-06-24T10:10:53;17.20;;;8.77;;
64615;SDS011;51027;42.162;24.754;2023-06-24T10:13:19;17.88;;;9.40;;
64615;SDS011;51027;42.162;24.754;2023-06-24T10:15:44;18.17;;;8.88;;
64615;SDS011;51027;42.162;24.754;2023-06-24T10:21:05;17.60;;;8.98;;
64615;SDS011;51027;42.162;24.754;2023-06-24T10:26:22;17.25;;;8.80;;
64615;SDS011;51027;42.162;24.754;2023-06-24T10:31:53;16.35;;;8.45;;
64615;SDS011;51027;42.162;24.754;2023-06-24T10:42:25;15.40;;;8.30;;
64615;SDS011;51027;42.162;24.754;2023-06-24T10:47:34;16.90;;;8.77;;
64615;SDS011;51027;42.162;24.754;2023-06-24T10:50:01;19.13;;;8.30;;
64615;SDS011;51027;42.162;24.754;2023-06-24T10:52:28;17.60;;;9.10;;
64615;SDS011;51027;42.162;24.754;2023-06-24T10:54:53;15.80;;;8.25;;
64615;SDS011;51027;42.162;24.754;2023-06-24T10:57:24;18.17;;;8.75;;
64615;SDS011;51027;42.162;24.754;2023-06-24T10:59:54;16.95;;;9.43;;
64615;SDS011;51027;42.162;24.754;2023-06-24T11:02:21;15.95;;;8.55;;
64615;SDS011;51027;42.162;24.754;2023-06-24T11:04:49;17.90;;;9.02;;
64615;SDS011;51027;42.162;24.754;2023-06-24T11:07:17;17.33;;;9.38;;
64615;SDS011;51027;42.162;24.754;2023-06-24T11:09:54;16.48;;;9.15;;
64615;SDS011;51027;42.162;24.754;2023-06-24T11:12:24;18.38;;;9.40;;
64615;SDS011;51027;42.162;24.754;2023-06-24T11:14:51;17.50;;;9.98;;
64615;SDS011;51027;42.162;24.754;2023-06-24T11:17:21;18.15;;;9.70;;
64615;SDS011;51027;42.162;24.754;2023-06-24T11:19:48;18.08;;;9.48;;
64615;SDS011;51027;42.162;24.754;2023-06-24T11:22:13;17.90;;;9.57;;
64615;SDS011;51027;42.162;24.754;2023-06-24T11:24:39;17.60;;;9.88;;
64615;SDS011;51027;42.162;24.754;2023-06-24T11:27:04;18.17;;;10.40;;
64615;SDS011;51027;42.162;24.754;2023-06-24T11:29:30;26.83;;;16.67;;
64615;SDS011;51027;42.162;24.754;2023-06-24T11:31:57;18.40;;;11.15;;
64615;SDS011;51027;42.162;24.754;2023-06-24T11:34:23;17.83;;;9.63;;
64615;SDS011;51027;42.162;24.754;2023-06-24T11:36:48;16.95;;;9.68;;
64615;SDS011;51027;42.162;24.754;2023-06-24T11:39:22;16.42;;;9.32;;
64615;SDS011;51027;42.162;24.754;2023-06-24T11:41:48;18.23;;;9.40;;
64615;SDS011;51027;42.162;24.754;2023-06-24T11:44:14;17.60;;;9.68;;
64615;SDS011;51027;42.162;24.754;2023-06-24T11:46:40;17.38;;;9.70;;
64615;SDS011;51027;42.162;24.754;2023-06-24T11:49:06;17.15;;;9.52;;
64615;SDS011;51027;42.162;24.754;2023-06-24T11:51:33;16.77;;;9.38;;
64615;SDS011;51027;42.162;24.754;2023-06-24T11:54:00;19.25;;;10.20;;
64615;SDS011;51027;42.162;24.754;2023-06-24T11:56:35;18.65;;;9.70;;
64615;SDS011;51027;42.162;24.754;2023-06-24T11:59:05;17.23;;;9.93;;
64615;SDS011;51027;42.162;24.754;2023-06-24T12:01:31;18.33;;;10.07;;
64615;SDS011;51027;42.162;24.754;2023-06-24T12:04:12;17.40;;;10.13;;
64615;SDS011;51027;42.162;24.754;2023-06-24T12:06:42;19.55;;;11.25;;
64615;SDS011;51027;42.162;24.754;2023-06-24T12:09:09;17.70;;;10.70;;
64615;SDS011;51027;42.162;24.754;2023-06-24T12:11:35;20.13;;;10.93;;
64615;SDS011;51027;42.162;24.754;2023-06-24T12:14:01;18.17;;;10.15;;
64615;SDS011;51027;42.162;24.754;2023-06-24T12:16:27;18.23;;;10.00;;
64615;SDS011;51027;42.162;24.754;2023-06-24T12:18:54;18.98;;;10.20;;
64615;SDS011;51027;42.162;24.754;2023-06-24T12:21:22;17.88;;;10.25;;
64615;SDS011;51027;42.162;24.754;2023-06-24T12:23:48;18.23;;;10.98;;
64615;SDS011;51027;42.162;24.754;2023-06-24T12:26:13;18.23;;;10.30;;
64615;SDS011;51027;42.162;24.754;2023-06-24T12:28:39;17.50;;;10.18;;
64615;SDS011;51027;42.162;24.754;2023-06-24T12:31:04;18.80;;;11.25;;
64615;SDS011;51027;42.162;24.754;2023-06-24T12:33:30;19.00;;;10.82;;
64615;SDS011;51027;42.162;24.754;2023-06-24T12:35:56;18.52;;;10.23;;
64615;SDS011;51027;42.162;24.754;2023-06-24T12:38:21;18.15;;;10.45;;
64615;SDS011;51027;42.162;24.754;2023-06-24T12:40:47;18.33;;;10.48;;
64615;SDS011;51027;42.162;24.754;2023-06-24T12:43:13;17.85;;;10.82;;
64615;SDS011;51027;42.162;24.754;2023-06-24T12:45:39;19.65;;;10.93;;
64615;SDS011;51027;42.162;24.754;2023-06-24T12:48:05;20.17;;;11.32;;
64615;SDS011;51027;42.162;24.754;2023-06-24T12:50:31;20.80;;;10.77;;
64615;SDS011;51027;42.162;24.754;2023-06-24T12:52:59;16.50;;;9.65;;
64615;SDS011;51027;42.162;24.754;2023-06-24T12:55:24;17.55;;;10.50;;
64615;SDS011;51027;42.162;24.754;2023-06-24T12:57:50;17.90;;;10.73;;
64615;SDS011;51027;42.162;24.754;2023-06-24T13:00:18;18.42;;;10.57;;
64615;SDS011;51027;42.162;24.754;2023-06-24T13:02:45;18.83;;;10.13;;
64615;SDS011;51027;42.162;24.754;2023-06-24T13:05:11;17.27;;;10.18;;
64615;SDS011;51027;42.162;24.754;2023-06-24T13:07:36;17.63;;;9.77;;
64615;SDS011;51027;42.162;24.754;2023-06-24T13:10:02;18.95;;;10.65;;
64615;SDS011;51027;42.162;24.754;2023-06-24T13:12:30;17.65;;;10.35;;
64615;SDS011;51027;42.162;24.754;2023-06-24T13:14:56;17.48;;;10.23;;
64615;SDS011;51027;42.162;24.754;2023-06-24T13:17:22;16.77;;;10.15;;
64615;SDS011;51027;42.162;24.754;2023-06-24T13:19:47;18.52;;;10.50;;
64615;SDS011;51027;42.162;24.754;2023-06-24T13:22:12;17.17;;;10.05;;
64615;SDS011;51027;42.162;24.754;2023-06-24T13:24:38;17.67;;;10.45;;
64615;SDS011;51027;42.162;24.754;2023-06-24T13:27:03;17.70;;;10.02;;
64615;SDS011;51027;42.162;24.754;2023-06-24T13:29:29;17.80;;;10.90;;
64615;SDS011;51027;42.162;24.754;2023-06-24T13:31:54;18.98;;;11.43;;
64615;SDS011;51027;42.162;24.754;2023-06-24T13:34:20;16.55;;;9.40;;
64615;SDS011;51027;42.162;24.754;2023-06-24T13:36:45;18.52;;;10.25;;
64615;SDS011;51027;42.162;24.754;2023-06-24T13:39:12;19.80;;;10.95;;
64615;SDS011;51027;42.162;24.754;2023-06-24T13:41:40;18.30;;;10.20;;
64615;SDS011;51027;42.162;24.754;2023-06-24T13:46:32;18.95;;;10.32;;
64615;SDS011;51027;42.162;24.754;2023-06-24T13:48:58;18.23;;;10.65;;
64615;SDS011;51027;42.162;24.754;2023-06-24T13:51:24;18.60;;;10.60;;
64615;SDS011;51027;42.162;24.754;2023-06-24T13:53:50;17.10;;;9.90;;
64615;SDS011;51027;42.162;24.754;2023-06-24T13:56:18;20.17;;;10.38;;
64615;SDS011;51027;42.162;24.754;2023-06-24T13:58:44;18.30;;;10.27;;
64615;SDS011;51027;42.162;24.754;2023-06-24T14:01:10;19.33;;;9.88;;
64615;SDS011;51027;42.162;24.754;2023-06-24T14:03:36;18.25;;;10.40;;
64615;SDS011;51027;42.162;24.754;2023-06-24T14:06:02;19.08;;;10.15;;
64615;SDS011;51027;42.162;24.754;2023-06-24T14:08:28;18.02;;;10.95;;
64615;SDS011;51027;42.162;24.754;2023-06-24T14:10:55;17.25;;;9.95;;
64615;SDS011;51027;42.162;24.754;2023-06-24T14:13:21;16.98;;;9.10;;
64615;SDS011;51027;42.162;24.754;2023-06-24T14:15:46;16.95;;;9.80;;
64615;SDS011;51027;42.162;24.754;2023-06-24T14:18:11;17.77;;;9.43;;
64615;SDS011;51027;42.162;24.754;2023-06-24T14:20:37;18.58;;;9.40;;
64615;SDS011;51027;42.162;24.754;2023-06-24T14:23:03;17.95;;;9.52;;
64615;SDS011;51027;42.162;24.754;2023-06-24T14:25:29;15.95;;;8.85;;
64615;SDS011;51027;42.162;24.754;2023-06-24T14:27:55;17.20;;;9.60;;
64615;SDS011;51027;42.162;24.754;2023-06-24T14:30:20;16.65;;;9.05;;
64615;SDS011;51027;42.162;24.754;2023-06-24T14:32:46;17.27;;;8.95;;
64615;SDS011;51027;42.162;24.754;2023-06-24T14:35:11;17.88;;;10.02;;
64615;SDS011;51027;42.162;24.754;2023-06-24T14:37:37;17.52;;;9.77;;
64615;SDS011;51027;42.162;24.754;2023-06-24T14:40:03;16.17;;;8.73;;
64615;SDS011;51027;42.162;24.754;2023-06-24T14:42:29;18.30;;;10.50;;
64615;SDS011;51027;42.162;24.754;2023-06-24T14:44:54;16.52;;;8.80;;
64615;SDS011;51027;42.162;24.754;2023-06-24T14:47:20;17.10;;;8.98;;
64615;SDS011;51027;42.162;24.754;2023-06-24T14:49:46;16.00;;;8.73;;
64615;SDS011;51027;42.162;24.754;2023-06-24T14:52:11;17.45;;;9.27;;
64615;SDS011;51027;42.162;24.754;2023-06-24T14:54:37;19.30;;;9.20;;
64615;SDS011;51027;42.162;24.754;2023-06-24T14:57:02;16.33;;;8.98;;
64615;SDS011;51027;42.162;24.754;2023-06-24T14:59:28;16.73;;;8.80;;
64615;SDS011;51027;42.162;24.754;2023-06-24T15:01:53;17.90;;;9.13;;
64615;SDS011;51027;42.162;24.754;2023-06-24T15:04:19;16.55;;;8.50;;
64615;SDS011;51027;42.162;24.754;2023-06-24T15:06:44;18.27;;;9.07;;
64615;SDS011;51027;42.162;24.754;2023-06-24T15:09:11;16.85;;;9.00;;
64615;SDS011;51027;42.162;24.754;2023-06-24T15:11:36;18.00;;;9.15;;
64615;SDS011;51027;42.162;24.754;2023-06-24T15:14:02;18.23;;;9.20;;
64615;SDS011;51027;42.162;24.754;2023-06-24T15:16:27;18.58;;;8.85;;
64615;SDS011;51027;42.162;24.754;2023-06-24T15:18:53;18.20;;;9.48;;
64615;SDS011;51027;42.162;24.754;2023-06-24T15:21:19;19.05;;;9.55;;
64615;SDS011;51027;42.162;24.754;2023-06-24T15:23:44;16.50;;;8.73;;
64615;SDS011;51027;42.162;24.754;2023-06-24T15:26:11;17.13;;;9.25;;
64615;SDS011;51027;42.162;24.754;2023-06-24T15:28:36;18.75;;;9.85;;
64615;SDS011;51027;42.162;24.754;2023-06-24T15:31:02;20.27;;;10.73;;
64615;SDS011;51027;42.162;24.754;2023-06-24T15:33:27;17.58;;;9.77;;
64615;SDS011;51027;42.162;24.754;2023-06-24T15:35:53;18.70;;;10.43;;
64615;SDS011;51027;42.162;24.754;2023-06-24T15:38:18;20.05;;;10.45;;
64615;SDS011;51027;42.162;24.754;2023-06-24T15:40:45;18.50;;;9.70;;
64615;SDS011;51027;42.162;24.754;2023-06-24T15:43:10;18.60;;;9.25;;
64615;SDS011;51027;42.162;24.754;2023-06-24T15:45:36;17.80;;;9.27;;
64615;SDS011;51027;42.162;24.754;2023-06-24T15:48:05;17.33;;;9.20;;
64615;SDS011;51027;42.162;24.754;2023-06-24T15:50:31;18.83;;;9.20;;
64615;SDS011;51027;42.162;24.754;2023-06-24T15:52:56;19.27;;;9.57;;
64615;SDS011;51027;42.162;24.754;2023-06-24T15:55:22;19.27;;;9.63;;
64615;SDS011;51027;42.162;24.754;2023-06-24T15:57:47;18.58;;;8.70;;
64615;SDS011;51027;42.162;24.754;2023-06-24T16:00:13;18.58;;;9.18;;
64615;SDS011;51027;42.162;24.754;2023-06-24T16:02:39;17.00;;;8.48;;
64615;SDS011;51027;42.162;24.754;2023-06-24T16:05:05;17.35;;;8.77;;
64615;SDS011;51027;42.162;24.754;2023-06-24T16:07:32;16.20;;;8.35;;
64615;SDS011;51027;42.162;24.754;2023-06-24T16:09:57;16.95;;;8.57;;
64615;SDS011;51027;42.162;24.754;2023-06-24T16:12:23;17.08;;;8.15;;
64615;SDS011;51027;42.162;24.754;2023-06-24T16:14:48;17.50;;;8.57;;
64615;SDS011;51027;42.162;24.754;2023-06-24T16:17:14;17.73;;;9.00;;
64615;SDS011;51027;42.162;24.754;2023-06-24T16:19:39;17.33;;;8.07;;
64615;SDS011;51027;42.162;24.754;2023-06-24T16:22:05;18.60;;;9.18;;
64615;SDS011;51027;42.162;24.754;2023-06-24T16:24:31;17.17;;;8.88;;
64615;SDS011;51027;42.162;24.754;2023-06-24T16:26:56;19.05;;;10.13;;
64615;SDS011;51027;42.162;24.754;2023-06-24T16:29:21;18.33;;;9.30;;
64615;SDS011;51027;42.162;24.754;2023-06-24T16:31:47;17.90;;;9.00;;
64615;SDS011;51027;42.162;24.754;2023-06-24T16:34:12;18.20;;;8.98;;
64615;SDS011;51027;42.162;24.754;2023-06-24T16:36:38;17.17;;;8.77;;
64615;SDS011;51027;42.162;24.754;2023-06-24T16:39:03;19.17;;;8.77;;
64615;SDS011;51027;42.162;24.754;2023-06-24T16:41:30;20.58;;;8.65;;
64615;SDS011;51027;42.162;24.754;2023-06-24T16:43:56;17.35;;;8.63;;
64615;SDS011;51027;42.162;24.754;2023-06-24T16:46:21;17.67;;;8.35;;
64615;SDS011;51027;42.162;24.754;2023-06-24T16:48:47;17.88;;;8.63;;
64615;SDS011;51027;42.162;24.754;2023-06-24T16:51:12;17.27;;;7.80;;
64615;SDS011;51027;42.162;24.754;2023-06-24T16:53:38;17.40;;;7.95;;
64615;SDS011;51027;42.162;24.754;2023-06-24T16:56:03;17.30;;;8.23;;
64615;SDS011;51027;42.162;24.754;2023-06-24T16:58:29;18.52;;;8.23;;
64615;SDS011;51027;42.162;24.754;2023-06-24T17:00:54;16.92;;;8.30;;
64615;SDS011;51027;42.162;24.754;2023-06-24T17:03:20;18.30;;;8.70;;
64615;SDS011;51027;42.162;24.754;2023-06-24T17:05:45;17.58;;;8.32;;
64615;SDS011;51027;42.162;24.754;2023-06-24T17:08:11;19.85;;;7.80;;
64615;SDS011;51027;42.162;24.754;2023-06-24T17:10:37;16.92;;;8.55;;
64615;SDS011;51027;42.162;24.754;2023-06-24T17:13:03;17.05;;;7.95;;
64615;SDS011;51027;42.162;24.754;2023-06-24T17:15:29;28.23;;;12.00;;
64615;SDS011;51027;42.162;24.754;2023-06-24T17:17:54;19.63;;;10.93;;
64615;SDS011;51027;42.162;24.754;2023-06-24T17:20:20;19.73;;;11.57;;
64615;SDS011;51027;42.162;24.754;2023-06-24T17:22:45;20.73;;;11.90;;
64615;SDS011;51027;42.162;24.754;2023-06-24T17:25:11;23.52;;;13.00;;
64615;SDS011;51027;42.162;24.754;2023-06-24T17:27:36;22.05;;;14.52;;
64615;SDS011;51027;42.162;24.754;2023-06-24T17:30:02;23.98;;;13.57;;
64615;SDS011;51027;42.162;24.754;2023-06-24T17:32:28;22.48;;;13.45;;
64615;SDS011;51027;42.162;24.754;2023-06-24T17:34:53;21.80;;;12.80;;
64615;SDS011;51027;42.162;24.754;2023-06-24T17:37:20;23.58;;;12.73;;
64615;SDS011;51027;42.162;24.754;2023-06-24T17:39:45;22.83;;;13.70;;
64615;SDS011;51027;42.162;24.754;2023-06-24T17:42:11;19.98;;;12.20;;
64615;SDS011;51027;42.162;24.754;2023-06-24T17:44:36;23.67;;;13.15;;
64615;SDS011;51027;42.162;24.754;2023-06-24T17:47:02;22.48;;;13.00;;
64615;SDS011;51027;42.162;24.754;2023-06-24T17:49:27;19.33;;;11.27;;
64615;SDS011;51027;42.162;24.754;2023-06-24T17:51:53;20.10;;;9.30;;
64615;SDS011;51027;42.162;24.754;2023-06-24T17:54:18;19.80;;;10.05;;
64615;SDS011;51027;42.162;24.754;2023-06-24T17:56:43;17.65;;;9.65;;
64615;SDS011;51027;42.162;24.754;2023-06-24T17:59:09;18.45;;;9.38;;
64615;SDS011;51027;42.162;24.754;2023-06-24T18:01:34;18.42;;;9.57;;
64615;SDS011;51027;42.162;24.754;2023-06-24T18:04:00;18.70;;;10.43;;
64615;SDS011;51027;42.162;24.754;2023-06-24T18:06:25;19.75;;;10.27;;